createdAt,value
2023-02-06T00:04:48.187Z,1044.2
2023-02-06T00:09:48.426Z,1044.2
2023-02-06T00:14:48.472Z,1044.2
2023-02-06T00:19:48.352Z,1044.2
2023-02-06T00:24:48.636Z,1044.2
2023-02-06T00:29:48.489Z,1044.1
2023-02-06T00:34:48.383Z,1044
2023-02-06T00:39:48.317Z,1044.1
2023-02-06T00:44:48.341Z,1044.1
2023-02-06T00:49:48.232Z,1044.1
2023-02-06T00:54:48.240Z,1044.1
2023-02-06T00:59:48.200Z,1044.1
2023-02-06T01:04:48.214Z,1044.1
2023-02-06T01:09:48.361Z,1044.1
2023-02-06T01:14:48.849Z,1044.2
2023-02-06T01:19:48.094Z,1044.2
2023-02-06T01:24:48.273Z,1044.3
2023-02-06T01:29:48.230Z,1044.3
2023-02-06T01:34:48.362Z,1044.3
2023-02-06T01:39:48.177Z,1044.3
2023-02-06T01:44:48.506Z,1044.4
2023-02-06T01:49:49.101Z,1044.3
2023-02-06T01:54:48.193Z,1044.1
2023-02-06T01:59:51.256Z,1044.1
2023-02-06T02:04:48.183Z,1044
2023-02-06T02:09:48.284Z,1044
2023-02-06T02:14:48.146Z,1044
2023-02-06T02:20:06.126Z,1043.9
2023-02-06T02:24:48.068Z,1043.9
2023-02-06T02:29:48.121Z,1043.8
2023-02-06T02:34:48.277Z,1043.9
2023-02-06T02:39:48.250Z,1043.9
2023-02-06T02:44:51.620Z,1043.7
2023-02-06T02:49:48.220Z,1043.6
2023-02-06T02:54:48.097Z,1043.7
2023-02-06T02:59:47.989Z,1043.6
2023-02-06T03:04:48.268Z,1043.6
2023-02-06T03:09:48.056Z,1043.7
2023-02-06T03:14:50.505Z,1043.7
2023-02-06T03:19:50.973Z,1043.8
2023-02-06T03:24:48.085Z,1043.7
2023-02-06T03:29:48.045Z,1043.7
2023-02-06T03:34:48.043Z,1043.7
2023-02-06T03:39:48.324Z,1043.7
2023-02-06T03:44:48.083Z,1043.6
2023-02-06T03:49:48.097Z,1043.7
2023-02-06T03:54:48.118Z,1043.8
2023-02-06T03:59:48.503Z,1043.8
2023-02-06T04:04:48.100Z,1043.8
2023-02-06T04:09:48.254Z,1043.8
2023-02-06T04:14:48.123Z,1043.8
2023-02-06T04:19:48.632Z,1043.9
2023-02-06T04:24:48.127Z,1043.8
2023-02-06T04:29:48.019Z,1043.8
2023-02-06T04:34:48.108Z,1043.7
2023-02-06T04:39:48.159Z,1043.8
2023-02-06T04:44:47.996Z,1043.9
2023-02-06T04:49:48.220Z,1043.7
2023-02-06T04:54:47.916Z,1043.6
2023-02-06T04:59:47.936Z,1043.6
2023-02-06T05:04:47.957Z,1043.8
2023-02-06T05:09:48.205Z,1043.7
2023-02-06T05:14:48.205Z,1043.9
2023-02-06T05:19:48.042Z,1043.9
2023-02-06T05:24:48.028Z,1043.8
2023-02-06T05:29:48.651Z,1043.8
2023-02-06T05:34:48.084Z,1043.9
2023-02-06T05:39:47.871Z,1043.9
2023-02-06T05:44:48.410Z,1044
2023-02-06T05:49:47.992Z,1043.9
2023-02-06T05:54:48.033Z,1043.9
2023-02-06T05:59:48.042Z,1044
2023-02-06T06:04:48.445Z,1044
2023-02-06T06:09:48.340Z,1044
2023-02-06T06:14:47.903Z,1044.1
2023-02-06T06:19:48.237Z,1044
2023-02-06T06:24:47.970Z,1044.1
2023-02-06T06:29:48.246Z,1044
2023-02-06T06:34:48.126Z,1044
2023-02-06T06:39:47.991Z,1044
2023-02-06T06:44:48.098Z,1044.1
2023-02-06T06:49:47.900Z,1044
2023-02-06T06:54:48.119Z,1043.9
2023-02-06T06:59:48.128Z,1043.9
2023-02-06T07:04:47.884Z,1043.8
2023-02-06T07:09:47.853Z,1043.8
2023-02-06T07:14:48.146Z,1043.8
2023-02-06T07:19:47.934Z,1043.7
2023-02-06T07:24:48.114Z,1043.7
2023-02-06T07:29:48.123Z,1043.7
2023-02-06T07:34:48.045Z,1043.6
2023-02-06T07:39:48.313Z,1043.5
2023-02-06T07:44:47.892Z,1043.4
2023-02-06T07:49:47.784Z,1043.3
2023-02-06T07:54:47.982Z,1043.4
2023-02-06T07:59:47.732Z,1043.3
2023-02-06T08:04:47.838Z,1043.2
2023-02-06T08:09:47.917Z,1043.2
2023-02-06T08:14:47.887Z,1043
2023-02-06T08:19:47.775Z,1042.9
2023-02-06T08:24:48.027Z,1042.8
2023-02-06T08:29:48.025Z,1042.7
2023-02-06T08:34:48.158Z,1042.8
2023-02-06T08:39:48.188Z,1042.6
2023-02-06T08:44:47.794Z,1042.7
2023-02-06T08:49:47.940Z,1042.7
2023-02-06T08:54:48.057Z,1042.5
2023-02-06T08:59:47.961Z,1042.5
2023-02-06T09:04:47.967Z,1042.6
2023-02-06T09:09:47.981Z,1042.7
2023-02-06T09:14:47.983Z,1042.7
2023-02-06T09:19:48.073Z,1042.8
2023-02-06T09:24:47.783Z,1042.7
2023-02-06T09:29:48.142Z,1042.7
2023-02-06T09:34:49.098Z,1042.8
2023-02-06T09:39:47.789Z,1042.8
2023-02-06T09:44:49.772Z,1042.9
2023-02-06T09:49:48.037Z,1042.9
2023-02-06T09:54:47.908Z,1042.9
2023-02-06T09:59:48.037Z,1043
2023-02-06T10:04:47.627Z,1043
2023-02-06T10:09:47.741Z,1043
2023-02-06T10:14:49.872Z,1043.1
2023-02-06T10:19:47.783Z,1043
2023-02-06T10:24:51.467Z,1043
2023-02-06T10:29:48.197Z,1043
2023-02-06T10:34:48.082Z,1042.9
2023-02-06T10:39:47.813Z,1042.8
2023-02-06T10:44:51.383Z,1042.7
2023-02-06T10:49:47.773Z,1042.8
2023-02-06T10:54:47.904Z,1042.8
2023-02-06T10:59:47.866Z,1042.8
2023-02-06T11:04:47.704Z,1042.8
2023-02-06T11:09:47.901Z,1042.7
2023-02-06T11:14:49.546Z,1042.8
2023-02-06T11:19:47.872Z,1042.8
2023-02-06T11:24:47.585Z,1042.9
2023-02-06T11:29:49.400Z,1042.9
2023-02-06T11:34:47.684Z,1042.8
2023-02-06T11:39:47.986Z,1042.7
2023-02-06T11:44:47.636Z,1042.6
2023-02-06T11:49:47.804Z,1042.6
2023-02-06T11:54:47.641Z,1042.6
2023-02-06T11:59:48.919Z,1042.5
2023-02-06T12:04:47.784Z,1042.4
2023-02-06T12:09:47.597Z,1042.3
2023-02-06T12:14:51.777Z,1042.2
2023-02-06T12:19:50.045Z,1042.2
2023-02-06T12:24:47.793Z,1042
2023-02-06T12:29:47.689Z,1042
2023-02-06T12:34:50.496Z,1042.1
2023-02-06T12:39:47.728Z,1042.1
2023-02-06T12:44:47.616Z,1042
2023-02-06T12:49:47.618Z,1041.9
2023-02-06T12:54:47.838Z,1041.9
2023-02-06T12:59:57.622Z,1041.9
2023-02-06T13:04:48.089Z,1041.8
2023-02-06T13:09:47.653Z,1041.7
2023-02-06T13:14:47.760Z,1041.6
2023-02-06T13:19:50.495Z,1041.5
2023-02-06T13:24:47.732Z,1041.5
2023-02-06T13:29:48.044Z,1041.5
2023-02-06T13:34:47.782Z,1041.4
2023-02-06T13:40:09.675Z,1041.3
2023-02-06T13:44:48.642Z,1041.3
2023-02-06T13:50:21.808Z,1041.4
2023-02-06T13:54:59.879Z,1041.4
2023-02-06T13:59:49.923Z,1041.3
2023-02-06T14:04:47.631Z,1041.3
2023-02-06T14:09:47.710Z,1041.2
2023-02-06T14:14:52.856Z,1041.2
2023-02-06T14:19:52.287Z,1041.2
2023-02-06T14:24:55.665Z,1041.2
2023-02-06T14:29:47.603Z,1041.1
2023-02-06T14:34:54.169Z,1041.2
2023-02-06T14:39:47.664Z,1041.2
2023-02-06T14:44:47.751Z,1041.2
2023-02-06T14:49:47.627Z,1041.3
2023-02-06T14:54:47.415Z,1041.3
2023-02-06T14:59:47.767Z,1041.3
2023-02-06T15:04:47.719Z,1041.4
2023-02-06T15:09:47.539Z,1041.5
2023-02-06T15:14:50.366Z,1041.5
2023-02-06T15:19:48.089Z,1041.5
2023-02-06T15:24:47.430Z,1041.5
2023-02-06T15:29:48.373Z,1041.6
2023-02-06T15:34:47.663Z,1041.6
2023-02-06T15:39:47.537Z,1041.5
2023-02-06T15:44:48.529Z,1041.4
2023-02-06T15:49:47.656Z,1041.4
2023-02-06T15:54:47.781Z,1041.4
2023-02-06T15:59:47.496Z,1041.4
2023-02-06T16:04:50.318Z,1041.3
2023-02-06T16:09:48.667Z,1041.3
2023-02-06T16:14:47.594Z,1041.3
2023-02-06T16:19:47.590Z,1041.3
2023-02-06T16:24:48.698Z,1041.3
2023-02-06T16:29:47.434Z,1041.4
2023-02-06T16:34:47.313Z,1041.5
2023-02-06T16:39:47.433Z,1041.5
2023-02-06T16:44:49.449Z,1041.4
2023-02-06T16:49:47.596Z,1041.5
2023-02-06T16:54:47.468Z,1041.5
2023-02-06T16:59:47.450Z,1041.6
2023-02-06T17:04:47.758Z,1041.7
2023-02-06T17:09:48.850Z,1041.6
2023-02-06T17:14:47.606Z,1041.7
2023-02-06T17:19:47.667Z,1041.7
2023-02-06T17:24:47.688Z,1041.7
2023-02-06T17:29:47.974Z,1041.6
2023-02-06T17:34:48.331Z,1041.5
2023-02-06T17:39:48.460Z,1041.5
2023-02-06T17:44:47.498Z,1041.5
2023-02-06T17:49:47.697Z,1041.4
2023-02-06T17:54:47.607Z,1041.5
2023-02-06T17:59:47.446Z,1041.5
2023-02-06T18:04:47.475Z,1041.5
2023-02-06T18:09:47.268Z,1041.5
2023-02-06T18:14:47.519Z,1041.4
2023-02-06T18:19:47.292Z,1041.3
2023-02-06T18:24:48.447Z,1041.3
2023-02-06T18:29:50.041Z,1041.3
2023-02-06T18:34:47.424Z,1041.2
2023-02-06T18:39:47.422Z,1041.3
2023-02-06T18:44:47.521Z,1041.2
2023-02-06T18:49:47.385Z,1041.1
2023-02-06T18:54:47.355Z,1041.1
2023-02-06T18:59:47.696Z,1041.1
2023-02-06T19:04:47.608Z,1041.1
2023-02-06T19:09:47.687Z,1041.2
2023-02-06T19:14:47.370Z,1041.1
2023-02-06T19:19:47.325Z,1041
2023-02-06T19:24:47.420Z,1041
2023-02-06T19:29:47.642Z,1041
2023-02-06T19:34:47.652Z,1040.9
2023-02-06T19:39:47.218Z,1040.9
2023-02-06T19:44:47.377Z,1040.9
2023-02-06T19:49:47.300Z,1041
2023-02-06T19:54:47.532Z,1041
2023-02-06T19:59:47.287Z,1041
2023-02-06T20:04:47.303Z,1040.9
2023-02-06T20:09:47.800Z,1040.9
2023-02-06T20:14:47.593Z,1040.9
2023-02-06T20:19:47.697Z,1040.8
2023-02-06T20:24:47.308Z,1040.9
2023-02-06T20:29:48.131Z,1041
2023-02-06T20:34:47.516Z,1040.9
2023-02-06T20:39:47.477Z,1040.8
2023-02-06T20:44:47.164Z,1040.8
2023-02-06T20:49:47.975Z,1040.8
2023-02-06T20:54:47.379Z,1040.8
2023-02-06T20:59:47.301Z,1040.8
2023-02-06T21:04:47.362Z,1040.8
2023-02-06T21:09:47.271Z,1040.8
2023-02-06T21:14:47.215Z,1040.8
2023-02-06T21:19:47.156Z,1040.8
2023-02-06T21:24:47.226Z,1040.8
2023-02-06T21:29:47.217Z,1040.8
2023-02-06T21:34:47.348Z,1040.8
2023-02-06T21:39:47.282Z,1040.8
2023-02-06T21:44:47.113Z,1040.8
2023-02-06T21:49:47.167Z,1040.8
2023-02-06T21:54:47.583Z,1040.8
2023-02-06T21:59:47.615Z,1040.8
2023-02-06T22:04:47.189Z,1040.8
2023-02-06T22:09:47.050Z,1040.8
2023-02-06T22:14:47.391Z,1040.8
2023-02-06T22:19:47.374Z,1040.8
2023-02-06T22:24:47.217Z,1040.8
2023-02-06T22:29:47.257Z,1040.8
2023-02-06T22:34:46.986Z,1040.7
2023-02-06T22:39:47.334Z,1040.7
2023-02-06T22:44:47.177Z,1040.7
2023-02-06T22:49:47.294Z,1040.7
2023-02-06T22:54:46.991Z,1040.7
2023-02-06T23:04:47.175Z,1040.8
2023-02-06T23:09:47.172Z,1040.8
2023-02-06T23:14:47.311Z,1040.8
2023-02-06T23:19:47.469Z,1040.8
2023-02-06T23:24:47.104Z,1040.8
2023-02-06T23:29:47.251Z,1040.8
2023-02-06T23:34:47.216Z,1040.8
2023-02-06T23:39:47.264Z,1040.8
2023-02-06T23:44:47.245Z,1040.8
2023-02-06T23:49:47.181Z,1040.8
2023-02-06T23:54:47.129Z,1040.8
2023-02-06T23:59:47.614Z,1040.8
